Pagrindinis puslapis
METAR-TAF:

METAR-TAF

Oro uostai :

Guwahati, Indija

platuma: 26-06-22N, ilguma: 091-35-09E, Aukštis: 49 m

Dabartinis oras

Ataskaita buvo paskelbta 41 minutes, ne 15:00 UTC
Ramus vėjas
Temperatūra 24°C
Drėgmė 89%
Slėgis 1014 hPa
Matomumas: 2000 m
Išsisklaidę debesys ne aukštis 1800 ft
Su prošvaistėmis ne aukštis 10000 ft
rūkana

METAR: VEGT 191500Z 00000KT 2000 BR SCT018 BKN100 24/22 Q1014 NOSIG

Laikas: 21:11 (15:41 UTC)

Prognozė

Ataskaita buvo paskelbta 1 valandą ir 41 minutes, ne 14:00 UTC
Prognozė galioja nuo 19 metu 15 UTC su 19 metu 24 UTC
Vėjas kt iš Šiaurės
Matomumas: 2000 m
Išsisklaidę debesys ne aukštis 1800 ft
Su prošvaistėmis ne aukštis 10000 ft
rūkana

TAF: VEGT 191400Z 1915/1924 00000KT 2000 BR SCT018 BKN100

Orai ataskaitas ir orų prognozės (METAR, TAF).

turimą stotys yra geltonos ir raudonos taškus žemėlapyje.

Perkelti pele per norėdami pamatyti stoties vardą.

Tada spustelėkite, norėdami matyti oro stebėjimo ir prognozės.

Norėdami pakeisti žemėlapį: spustelėkite ant žalios mygtukų su juodo kryžiaus žemyn,; žalią mygtuką su brūkšneliu, jei norite nutolinti; arba žalių rodyklių gretimoms žemėlapius.


METAR-TAF: